createdAt,value
2019-04-21T00:04:52.018Z,11.57
2019-04-21T00:10:06.289Z,12.53
2019-04-21T00:15:00.725Z,14.43
2019-04-21T00:20:05.545Z,12.20
2019-04-21T00:25:14.044Z,7.97
2019-04-21T00:30:30.331Z,8.30
2019-04-21T00:35:13.304Z,11.20
2019-04-21T00:40:35.526Z,11.47
2019-04-21T00:45:31.305Z,9.50
2019-04-21T00:50:51.796Z,8.53
2019-04-21T00:55:52.027Z,9.73
2019-04-21T01:00:57.069Z,9.73
2019-04-21T01:05:56.087Z,10.47
2019-04-21T01:10:52.990Z,9.63
2019-04-21T01:16:06.478Z,11.80
2019-04-21T01:20:48.989Z,11.03
2019-04-21T01:26:06.794Z,11.97
2019-04-21T01:31:15.363Z,9.20
2019-04-21T01:36:14.452Z,13.60
2019-04-21T01:41:25.556Z,12.27
2019-04-21T01:46:28.379Z,10.67
2019-04-21T01:51:28.105Z,11.97
2019-04-21T01:56:46.658Z,9.13
2019-04-21T02:01:48.494Z,11.53
2019-04-21T02:06:55.034Z,10.07
2019-04-21T02:12:00.078Z,8.10
2019-04-21T02:17:00.661Z,10.70
2019-04-21T02:22:02.394Z,11.40
2019-04-21T02:27:13.201Z,12.27
2019-04-21T02:37:36.801Z,12.13
2019-04-21T02:42:37.868Z,10.07
2019-04-21T02:47:47.482Z,14.53
2019-04-21T02:52:52.740Z,10.80
2019-04-21T03:03:05.585Z,12.03
2019-04-21T03:13:17.523Z,9.17
2019-04-21T03:18:17.651Z,11.03
2019-04-21T03:23:19.164Z,18.73
2019-04-21T03:28:22.210Z,14.20
2019-04-21T03:38:28.845Z,14.80
2019-04-21T03:48:36.575Z,15.20
2019-04-21T03:53:40.361Z,14.50
2019-04-21T04:04:30.516Z,16.13
2019-04-21T04:14:44.483Z,14.53
2019-04-21T04:19:45.082Z,15.97
2019-04-21T04:24:57.544Z,14.30
2019-04-21T04:29:59.357Z,16.87
2019-04-21T04:40:31.437Z,14.20
2019-04-21T04:45:41.656Z,16.60
2019-04-21T05:00:45.914Z,16.57
2019-04-21T05:06:42.109Z,18.83
2019-04-21T05:11:46.095Z,15.30
2019-04-21T05:16:55.909Z,14.87
2019-04-21T05:21:42.057Z,17.33
2019-04-21T05:26:39.153Z,16.80
2019-04-21T05:32:07.887Z,17.57
2019-04-21T05:37:29.280Z,14.63
2019-04-21T05:42:35.335Z,13.53
2019-04-21T05:48:12.062Z,15.93
2019-04-21T05:53:00.754Z,19.47
2019-04-21T05:58:06.912Z,14.60
2019-04-21T06:03:17.552Z,14.53
2019-04-21T06:08:19.356Z,14.77
2019-04-21T06:13:26.859Z,14.47
2019-04-21T06:18:36.426Z,13.60
2019-04-21T06:23:38.093Z,19.07
2019-04-21T06:28:44.067Z,13.75
2019-04-21T06:33:41.977Z,15.48
2019-04-21T06:39:06.410Z,14.30
2019-04-21T06:44:20.333Z,14.55
2019-04-21T06:49:02.687Z,18.40
2019-04-21T06:54:09.849Z,16.48
2019-04-21T06:59:20.851Z,16.02
2019-04-21T07:09:23.817Z,13.18
2019-04-21T07:14:30.214Z,14.10
2019-04-21T07:19:34.686Z,13.95
2019-04-21T07:24:35.445Z,12.33
2019-04-21T07:29:45.346Z,12.73
2019-04-21T07:34:38.547Z,10.08
2019-04-21T07:39:40.508Z,16.05
2019-04-21T07:44:40.854Z,13.88
2019-04-21T07:50:07.438Z,14.83
2019-04-21T08:05:20.008Z,13.03
2019-04-21T08:10:22.478Z,12.35
2019-04-21T08:15:38.592Z,12.30
2019-04-21T08:20:31.336Z,13.90
2019-04-21T08:25:46.538Z,12.15
2019-04-21T08:30:43.028Z,13.58
2019-04-21T08:36:08.001Z,13.13
2019-04-21T08:40:52.443Z,12.37
2019-04-21T08:45:52.738Z,11.22
2019-04-21T08:51:05.655Z,11.80
2019-04-21T08:56:17.314Z,9.88
2019-04-21T09:01:42.933Z,11.57
2019-04-21T09:11:47.191Z,10.10
2019-04-21T09:16:54.941Z,9.33
2019-04-21T09:22:13.244Z,8.38
2019-04-21T09:26:58.026Z,9.75
2019-04-21T09:31:49.441Z,5.90
2019-04-21T09:37:02.847Z,7.37
2019-04-21T09:41:59.069Z,6.00
2019-04-21T09:47:02.029Z,6.67
2019-04-21T09:52:06.670Z,5.12
2019-04-21T09:57:15.236Z,5.22
2019-04-21T10:02:18.856Z,4.58
2019-04-21T10:07:24.677Z,4.22
2019-04-21T10:12:19.992Z,4.45
2019-04-21T10:17:49.572Z,4.90
2019-04-21T10:22:53.014Z,8.10
2019-04-21T10:27:55.138Z,5.17
2019-04-21T10:32:58.425Z,9.98
2019-04-21T10:38:12.894Z,5.65
2019-04-21T10:43:07.487Z,8.68
2019-04-21T10:48:08.867Z,4.97
2019-04-21T10:53:23.111Z,6.67
2019-04-21T10:58:44.949Z,9.18
2019-04-21T11:03:51.014Z,4.62
2019-04-21T11:08:55.597Z,5.15
2019-04-21T11:13:57.157Z,4.83
2019-04-21T11:19:00.018Z,6.37
2019-04-21T11:24:02.243Z,5.27
2019-04-21T11:29:05.236Z,6.87
2019-04-21T11:34:09.635Z,6.03
2019-04-21T11:39:30.781Z,3.67
2019-04-21T11:44:24.770Z,4.47
2019-04-21T11:49:30.500Z,6.03
2019-04-21T11:54:31.155Z,3.72
2019-04-21T11:59:33.523Z,5.90
2019-04-21T12:04:35.900Z,4.15
2019-04-21T12:09:37.987Z,8.15
2019-04-21T12:14:41.834Z,4.22
2019-04-21T12:19:44.750Z,4.05
2019-04-21T12:24:49.068Z,5.55
2019-04-21T12:29:51.683Z,4.15
2019-04-21T12:34:55.310Z,3.62
2019-04-21T12:39:58.979Z,3.77
2019-04-21T12:45:01.490Z,3.98
2019-04-21T12:50:04.820Z,5.30
2019-04-21T12:55:07.380Z,3.17
2019-04-21T13:00:13.097Z,5.15
2019-04-21T13:05:15.974Z,3.55
2019-04-21T13:10:20.093Z,3.58
2019-04-21T13:15:22.466Z,4.15
2019-04-21T13:20:25.415Z,3.80
2019-04-21T13:25:27.865Z,4.85
2019-04-21T13:30:30.559Z,3.77
2019-04-21T13:35:33.159Z,4.03
2019-04-21T13:41:17.577Z,7.53
2019-04-21T13:46:08.271Z,4.40
2019-04-21T13:51:11.206Z,3.95
2019-04-21T13:56:14.340Z,3.65
2019-04-21T14:01:17.932Z,3.17
2019-04-21T14:06:20.528Z,5.90
2019-04-21T14:11:23.060Z,3.90
2019-04-21T14:16:26.617Z,2.60
2019-04-21T14:21:29.395Z,3.72
2019-04-21T14:26:32.123Z,4.90
2019-04-21T14:31:34.746Z,3.37
2019-04-21T14:36:37.176Z,3.00
2019-04-21T14:41:40.288Z,6.95
2019-04-21T14:46:50.962Z,3.12
2019-04-21T14:52:19.107Z,3.58
2019-04-21T14:57:21.446Z,5.85
2019-04-21T15:02:23.806Z,2.35
2019-04-21T15:07:28.671Z,4.15
2019-04-21T15:12:31.809Z,2.20
2019-04-21T15:17:33.999Z,3.25
2019-04-21T15:22:36.460Z,2.72
2019-04-21T15:27:39.040Z,3.62
2019-04-21T15:32:42.299Z,3.62
2019-04-21T15:37:46.225Z,5.40
2019-04-21T15:42:48.526Z,5.47
2019-04-21T15:47:51.887Z,7.42
2019-04-21T15:52:55.882Z,3.97
2019-04-21T15:58:16.500Z,2.92
2019-04-21T16:03:18.998Z,3.58
2019-04-21T16:08:22.018Z,3.97
2019-04-21T16:13:25.791Z,2.70
2019-04-21T16:18:28.097Z,4.67
2019-04-21T16:23:30.731Z,5.95
2019-04-21T16:28:33.381Z,4.40
2019-04-21T16:33:36.826Z,4.30
2019-04-21T16:38:39.648Z,4.70
2019-04-21T16:43:43.036Z,5.30
2019-04-21T16:48:49.353Z,2.98
2019-04-21T16:53:57.695Z,5.67
2019-04-21T16:59:06.381Z,4.03
2019-04-21T17:04:10.647Z,3.73
2019-04-21T17:09:12.977Z,4.83
2019-04-21T17:14:31.220Z,6.30
2019-04-21T17:19:27.185Z,4.57
2019-04-21T17:24:24.271Z,4.13
2019-04-21T17:29:26.602Z,4.90
2019-04-21T17:34:30.595Z,6.37
2019-04-21T17:39:32.683Z,4.62
2019-04-21T17:44:35.164Z,3.93
2019-04-21T17:49:37.454Z,4.30
2019-04-21T17:54:48.498Z,6.73
2019-04-21T18:00:11.621Z,6.37
2019-04-21T18:05:18.775Z,6.70
2019-04-21T18:10:14.366Z,5.07
2019-04-21T18:15:16.922Z,5.53
2019-04-21T18:20:01.919Z,7.13
2019-04-21T18:25:13.770Z,11.20
2019-04-21T18:30:36.251Z,8.40
2019-04-21T18:35:58.167Z,5.37
2019-04-21T18:41:01.437Z,6.33
2019-04-21T18:46:42.308Z,7.30
2019-04-21T18:51:55.204Z,7.57
2019-04-21T18:56:56.565Z,7.93
2019-04-21T19:01:59.721Z,7.37
2019-04-21T19:07:12.740Z,8.47
2019-04-21T19:12:23.540Z,5.73
2019-04-21T19:22:28.875Z,7.37
2019-04-21T19:27:31.105Z,6.73
2019-04-21T19:32:36.182Z,6.03
2019-04-21T19:37:26.997Z,8.10
2019-04-21T19:42:37.586Z,10.10
2019-04-21T19:47:56.540Z,11.90
2019-04-21T19:52:48.626Z,10.33
2019-04-21T19:57:43.142Z,12.57
2019-04-21T20:02:46.038Z,10.90
2019-04-21T20:08:06.683Z,11.40
2019-04-21T20:13:15.173Z,9.50
2019-04-21T20:18:07.179Z,10.17
2019-04-21T20:23:03.074Z,9.30
2019-04-21T20:28:15.043Z,8.57
2019-04-21T20:33:46.918Z,9.43
2019-04-21T20:38:24.766Z,10.30
2019-04-21T20:43:38.661Z,7.63
2019-04-21T20:48:40.120Z,9.73
2019-04-21T20:53:40.956Z,8.13
2019-04-21T20:58:45.306Z,10.30
2019-04-21T21:03:50.559Z,8.43
2019-04-21T21:08:57.165Z,9.50
2019-04-21T21:13:58.931Z,8.73
2019-04-21T21:24:08.570Z,9.47
2019-04-21T21:29:07.085Z,7.10
2019-04-21T21:34:20.827Z,6.67
2019-04-21T21:39:21.364Z,9.10
2019-04-21T21:44:14.854Z,10.97
2019-04-21T21:49:27.897Z,10.97
2019-04-21T21:54:19.864Z,7.57
2019-04-21T21:59:27.542Z,7.60
2019-04-21T22:04:30.759Z,5.37
2019-04-21T22:09:32.376Z,6.03
2019-04-21T22:14:44.674Z,7.37
2019-04-21T22:20:03.792Z,8.10
2019-04-21T22:24:55.590Z,7.77
2019-04-21T22:29:52.847Z,5.97
2019-04-21T22:34:58.301Z,4.80
2019-04-21T22:40:09.614Z,5.30
2019-04-21T22:45:01.360Z,5.03
2019-04-21T22:50:04.608Z,5.30
2019-04-21T22:55:15.952Z,8.33
2019-04-21T23:00:15.492Z,7.80
2019-04-21T23:05:22.276Z,6.67
2019-04-21T23:10:23.374Z,8.00
2019-04-21T23:15:36.881Z,5.70
2019-04-21T23:20:47.974Z,6.87
2019-04-21T23:25:46.206Z,8.90
2019-04-21T23:31:00.872Z,5.83
2019-04-21T23:35:45.998Z,6.53
2019-04-21T23:40:54.259Z,4.60
2019-04-21T23:45:52.134Z,6.83
2019-04-21T23:51:07.688Z,4.47
2019-04-21T23:55:59.210Z,5.87
